sensor_id;sensor_type;location;lat;lon;timestamp;pressure;altitude;pressure_sealevel;temperature;humidity
4392;BME280;2210;51.938;8.488;2023-04-06T00:02:37;100825.03;;;3.54;59.84
4392;BME280;2210;51.938;8.488;2023-04-06T00:06:46;100812.78;;;3.50;59.10
4392;BME280;2210;51.938;8.488;2023-04-06T00:10:47;100814.13;;;3.54;59.77
4392;BME280;2210;51.938;8.488;2023-04-06T00:14:53;100808.84;;;3.53;59.44
4392;BME280;2210;51.938;8.488;2023-04-06T00:18:53;100802.91;;;3.49;59.72
4392;BME280;2210;51.938;8.488;2023-04-06T00:23:19;100800.00;;;3.51;60.40
4392;BME280;2210;51.938;8.488;2023-04-06T00:27:19;100794.56;;;3.51;60.55
4392;BME280;2210;51.938;8.488;2023-04-06T00:31:29;100794.44;;;3.44;60.63
4392;BME280;2210;51.938;8.488;2023-04-06T00:35:54;100784.41;;;3.45;60.20
4392;BME280;2210;51.938;8.488;2023-04-06T00:40:11;100778.28;;;3.43;60.23
4392;BME280;2210;51.938;8.488;2023-04-06T00:44:29;100784.94;;;3.40;60.57
4392;BME280;2210;51.938;8.488;2023-04-06T00:48:32;100775.81;;;3.33;60.98
4392;BME280;2210;51.938;8.488;2023-04-06T00:52:33;100770.53;;;3.31;60.99
4392;BME280;2210;51.938;8.488;2023-04-06T00:56:43;100770.72;;;3.30;61.68
4392;BME280;2210;51.938;8.488;2023-04-06T01:00:43;100767.22;;;3.21;61.44
4392;BME280;2210;51.938;8.488;2023-04-06T01:04:44;100768.63;;;3.17;61.87
4392;BME280;2210;51.938;8.488;2023-04-06T01:08:45;100757.84;;;3.24;62.20
4392;BME280;2210;51.938;8.488;2023-04-06T01:12:45;100763.59;;;3.06;61.99
4392;BME280;2210;51.938;8.488;2023-04-06T01:16:45;100753.53;;;3.06;62.16
4392;BME280;2210;51.938;8.488;2023-04-06T01:20:45;100752.03;;;3.03;62.48
4392;BME280;2210;51.938;8.488;2023-04-06T01:24:49;100749.69;;;3.00;62.65
4392;BME280;2210;51.938;8.488;2023-04-06T01:28:58;100752.03;;;3.03;62.82
4392;BME280;2210;51.938;8.488;2023-04-06T01:32:58;100749.38;;;2.95;62.67
4392;BME280;2210;51.938;8.488;2023-04-06T01:37:02;100739.03;;;2.91;62.78
4392;BME280;2210;51.938;8.488;2023-04-06T01:41:09;100731.41;;;2.86;64.31
4392;BME280;2210;51.938;8.488;2023-04-06T01:45:09;100738.03;;;2.83;63.45
4392;BME280;2210;51.938;8.488;2023-04-06T01:49:10;100735.88;;;2.79;64.35
4392;BME280;2210;51.938;8.488;2023-04-06T01:53:13;100732.84;;;2.74;64.23
4392;BME280;2210;51.938;8.488;2023-04-06T01:57:14;100730.31;;;2.72;64.29
4392;BME280;2210;51.938;8.488;2023-04-06T02:01:14;100722.69;;;2.67;64.91
4392;BME280;2210;51.938;8.488;2023-04-06T02:05:15;100722.75;;;2.59;64.62
4392;BME280;2210;51.938;8.488;2023-04-06T02:09:15;100720.75;;;2.53;66.87
4392;BME280;2210;51.938;8.488;2023-04-06T02:13:15;100722.81;;;2.51;67.52
4392;BME280;2210;51.938;8.488;2023-04-06T02:17:16;100722.81;;;2.51;69.12
4392;BME280;2210;51.938;8.488;2023-04-06T02:21:16;100712.75;;;2.51;68.59
4392;BME280;2210;51.938;8.488;2023-04-06T02:25:20;100714.31;;;2.46;68.64
4392;BME280;2210;51.938;8.488;2023-04-06T02:29:20;100716.72;;;2.41;67.42
4392;BME280;2210;51.938;8.488;2023-04-06T02:33:23;100722.50;;;2.46;68.47
4392;BME280;2210;51.938;8.488;2023-04-06T02:37:30;100715.91;;;2.40;68.40
4392;BME280;2210;51.938;8.488;2023-04-06T02:41:33;100717.09;;;2.38;69.49
4392;BME280;2210;51.938;8.488;2023-04-06T02:45:36;100715.44;;;2.28;68.92
4392;BME280;2210;51.938;8.488;2023-04-06T02:49:36;100709.88;;;2.22;68.51
4392;BME280;2210;51.938;8.488;2023-04-06T02:53:39;100716.16;;;2.22;69.06
4392;BME280;2210;51.938;8.488;2023-04-06T02:57:46;100711.63;;;2.14;68.93
4392;BME280;2210;51.938;8.488;2023-04-06T03:01:48;100716.59;;;2.02;68.18
4392;BME280;2210;51.938;8.488;2023-04-06T03:05:55;100711.84;;;1.96;68.82
4392;BME280;2210;51.938;8.488;2023-04-06T03:09:58;100710.97;;;2.04;68.40
4392;BME280;2210;51.938;8.488;2023-04-06T03:13:58;100711.84;;;1.96;69.56
4392;BME280;2210;51.938;8.488;2023-04-06T03:18:14;100717.97;;;1.98;70.08
4392;BME280;2210;51.938;8.488;2023-04-06T03:22:17;100710.69;;;1.91;71.07
4392;BME280;2210;51.938;8.488;2023-04-06T03:26:17;100716.97;;;1.91;71.07
4392;BME280;2210;51.938;8.488;2023-04-06T03:30:18;100714.59;;;1.88;70.22
4392;BME280;2210;51.938;8.488;2023-04-06T03:34:18;100713.91;;;1.94;70.51
4392;BME280;2210;51.938;8.488;2023-04-06T03:38:18;100716.66;;;1.86;70.05
4392;BME280;2210;51.938;8.488;2023-04-06T03:42:19;100712.56;;;1.90;69.36
4392;BME280;2210;51.938;8.488;2023-04-06T03:46:22;100710.91;;;1.81;69.20
4392;BME280;2210;51.938;8.488;2023-04-06T03:50:28;100710.53;;;1.84;70.57
4392;BME280;2210;51.938;8.488;2023-04-06T03:54:47;100716.84;;;1.76;70.89
4392;BME280;2210;51.938;8.488;2023-04-06T03:58:47;100715.34;;;1.74;70.90
4392;BME280;2210;51.938;8.488;2023-04-06T04:02:50;100716.69;;;1.69;71.09
4392;BME280;2210;51.938;8.488;2023-04-06T04:06:50;100702.06;;;1.79;69.88
4392;BME280;2210;51.938;8.488;2023-04-06T04:10:56;100715.13;;;1.83;72.00
4392;BME280;2210;51.938;8.488;2023-04-06T04:14:57;100716.19;;;1.74;72.13
4392;BME280;2210;51.938;8.488;2023-04-06T04:19:00;100715.34;;;1.74;71.04
4392;BME280;2210;51.938;8.488;2023-04-06T04:23:00;100709.56;;;1.77;69.75
4392;BME280;2210;51.938;8.488;2023-04-06T04:27:01;100720.78;;;1.74;70.80
4392;BME280;2210;51.938;8.488;2023-04-06T04:31:01;100714.50;;;1.65;70.25
4392;BME280;2210;51.938;8.488;2023-04-06T04:35:01;100712.31;;;1.60;71.77
4392;BME280;2210;51.938;8.488;2023-04-06T04:39:02;100708.75;;;1.60;70.25
4392;BME280;2210;51.938;8.488;2023-04-06T04:43:02;100704.34;;;1.59;69.91
4392;BME280;2210;51.938;8.488;2023-04-06T04:47:02;100706.91;;;1.52;70.82
4392;BME280;2210;51.938;8.488;2023-04-06T04:51:05;100705.38;;;1.58;71.65
4392;BME280;2210;51.938;8.488;2023-04-06T04:55:06;100705.88;;;1.53;72.23
4392;BME280;2210;51.938;8.488;2023-04-06T04:59:09;100712.19;;;1.45;72.67
4392;BME280;2210;51.938;8.488;2023-04-06T05:03:20;100713.38;;;1.43;73.57
4392;BME280;2210;51.938;8.488;2023-04-06T05:07:21;100709.28;;;1.47;73.96
4392;BME280;2210;51.938;8.488;2023-04-06T05:11:22;100712.34;;;1.44;75.09
4392;BME280;2210;51.938;8.488;2023-04-06T05:15:22;100714.06;;;1.37;74.88
4392;BME280;2210;51.938;8.488;2023-04-06T05:19:23;100723.53;;;1.49;75.61
4392;BME280;2210;51.938;8.488;2023-04-06T05:23:23;100716.22;;;1.58;76.46
4392;BME280;2210;51.938;8.488;2023-04-06T05:27:23;100718.78;;;1.59;75.06
4392;BME280;2210;51.938;8.488;2023-04-06T05:31:24;100709.59;;;1.60;74.90
4392;BME280;2210;51.938;8.488;2023-04-06T05:35:24;100710.94;;;1.73;72.17
4392;BME280;2210;51.938;8.488;2023-04-06T05:39:25;100708.19;;;1.81;70.95
4392;BME280;2210;51.938;8.488;2023-04-06T05:43:25;100714.59;;;1.88;69.44
4392;BME280;2210;51.938;8.488;2023-04-06T05:47:25;100708.66;;;1.93;69.02
4392;BME280;2210;51.938;8.488;2023-04-06T05:51:26;100713.16;;;2.09;68.61
4392;BME280;2210;51.938;8.488;2023-04-06T05:55:27;100710.88;;;2.21;67.34
4392;BME280;2210;51.938;8.488;2023-04-06T05:59:28;100717.25;;;2.36;67.25
4392;BME280;2210;51.938;8.488;2023-04-06T06:03:31;100708.66;;;2.56;65.86
4392;BME280;2210;51.938;8.488;2023-04-06T06:07:34;100703.97;;;2.87;65.40
4392;BME280;2210;51.938;8.488;2023-04-06T06:11:35;100701.81;;;3.21;64.70
4392;BME280;2210;51.938;8.488;2023-04-06T06:15:38;100699.81;;;3.53;62.98
4392;BME280;2210;51.938;8.488;2023-04-06T06:19:38;100692.00;;;3.80;61.75
4392;BME280;2210;51.938;8.488;2023-04-06T06:23:39;100689.81;;;4.05;60.55
4392;BME280;2210;51.938;8.488;2023-04-06T06:27:42;100682.44;;;4.35;59.37
4392;BME280;2210;51.938;8.488;2023-04-06T06:31:43;100687.66;;;4.52;58.15
4392;BME280;2210;51.938;8.488;2023-04-06T06:35:49;100687.31;;;4.62;57.04
4392;BME280;2210;51.938;8.488;2023-04-06T06:39:50;100690.50;;;4.87;57.43
4392;BME280;2210;51.938;8.488;2023-04-06T06:43:50;100690.13;;;4.90;58.31
4392;BME280;2210;51.938;8.488;2023-04-06T06:47:50;100691.06;;;5.04;56.15
4392;BME280;2210;51.938;8.488;2023-04-06T06:51:51;100687.84;;;5.50;55.86
4392;BME280;2210;51.938;8.488;2023-04-06T06:56:00;100678.31;;;5.74;54.78
4392;BME280;2210;51.938;8.488;2023-04-06T07:00:08;100683.41;;;5.49;55.61
4392;BME280;2210;51.938;8.488;2023-04-06T07:04:11;100674.88;;;5.94;54.21
4392;BME280;2210;51.938;8.488;2023-04-06T07:08:11;100674.56;;;6.11;53.29
4392;BME280;2210;51.938;8.488;2023-04-06T07:12:14;100669.53;;;6.28;53.71
4392;BME280;2210;51.938;8.488;2023-04-06T07:16:16;100665.09;;;6.20;53.07
4392;BME280;2210;51.938;8.488;2023-04-06T07:20:16;100665.38;;;6.45;52.83
4392;BME280;2210;51.938;8.488;2023-04-06T07:24:17;100667.94;;;6.60;53.91
4392;BME280;2210;51.938;8.488;2023-04-06T07:28:17;100666.22;;;6.52;53.16
4392;BME280;2210;51.938;8.488;2023-04-06T07:32:17;100674.09;;;6.69;52.97
4392;BME280;2210;51.938;8.488;2023-04-06T07:36:18;100661.44;;;7.08;51.68
4392;BME280;2210;51.938;8.488;2023-04-06T07:40:30;100665.66;;;7.11;52.16
4392;BME280;2210;51.938;8.488;2023-04-06T07:44:38;100659.03;;;7.79;51.08
4392;BME280;2210;51.938;8.488;2023-04-06T07:48:39;100653.97;;;7.75;50.53
4392;BME280;2210;51.938;8.488;2023-04-06T07:52:46;100645.38;;;8.10;48.74
4392;BME280;2210;51.938;8.488;2023-04-06T07:56:49;100636.31;;;8.10;48.97
4392;BME280;2210;51.938;8.488;2023-04-06T08:00:52;100640.22;;;8.34;48.56
4392;BME280;2210;51.938;8.488;2023-04-06T08:04:52;100642.63;;;8.56;47.52
4392;BME280;2210;51.938;8.488;2023-04-06T08:08:54;100633.06;;;8.65;45.75
4392;BME280;2210;51.938;8.488;2023-04-06T08:12:54;100633.72;;;9.18;47.41
4392;BME280;2210;51.938;8.488;2023-04-06T08:16:54;100637.97;;;9.14;45.85
4392;BME280;2210;51.938;8.488;2023-04-06T08:20:55;100634.94;;;9.22;45.78
4392;BME280;2210;51.938;8.488;2023-04-06T08:24:56;100633.63;;;9.68;45.15
4392;BME280;2210;51.938;8.488;2023-04-06T08:28:56;100637.66;;;9.66;45.96
4392;BME280;2210;51.938;8.488;2023-04-06T08:32:59;100634.09;;;9.65;45.51
4392;BME280;2210;51.938;8.488;2023-04-06T08:37:06;100635.31;;;9.69;46.61
4392;BME280;2210;51.938;8.488;2023-04-06T08:41:07;100622.69;;;10.29;45.86
4392;BME280;2210;51.938;8.488;2023-04-06T08:45:09;100623.75;;;9.79;46.17
4392;BME280;2210;51.938;8.488;2023-04-06T08:49:09;100616.81;;;10.25;44.63
4392;BME280;2210;51.938;8.488;2023-04-06T08:53:11;100618.34;;;10.40;45.18
4392;BME280;2210;51.938;8.488;2023-04-06T08:57:12;100603.09;;;10.79;44.24
4392;BME280;2210;51.938;8.488;2023-04-06T09:01:13;100608.03;;;11.01;43.32
4392;BME280;2210;51.938;8.488;2023-04-06T09:05:15;100598.69;;;11.02;43.79
4392;BME280;2210;51.938;8.488;2023-04-06T09:09:16;100603.25;;;11.32;43.52
4392;BME280;2210;51.938;8.488;2023-04-06T09:13:16;100602.28;;;11.50;43.50
4392;BME280;2210;51.938;8.488;2023-04-06T09:17:21;100600.13;;;11.64;43.19
4392;BME280;2210;51.938;8.488;2023-04-06T09:21:21;100592.75;;;11.81;43.12
4392;BME280;2210;51.938;8.488;2023-04-06T09:25:23;100591.72;;;11.59;43.47
4392;BME280;2210;51.938;8.488;2023-04-06T09:29:26;100587.88;;;11.60;41.34
4392;BME280;2210;51.938;8.488;2023-04-06T09:33:26;100580.97;;;11.98;43.59
4392;BME280;2210;51.938;8.488;2023-04-06T09:37:27;100580.91;;;12.10;41.60
4392;BME280;2210;51.938;8.488;2023-04-06T09:41:33;100578.06;;;12.05;42.84
4392;BME280;2210;51.938;8.488;2023-04-06T09:45:36;100574.47;;;12.33;41.33
4392;BME280;2210;51.938;8.488;2023-04-06T09:49:37;100573.81;;;12.60;41.66
4392;BME280;2210;51.938;8.488;2023-04-06T09:53:39;100571.50;;;12.40;40.94
4392;BME280;2210;51.938;8.488;2023-04-06T09:58:04;100558.66;;;12.17;40.91
4392;BME280;2210;51.938;8.488;2023-04-06T10:02:05;100562.44;;;11.98;40.49
4392;BME280;2210;51.938;8.488;2023-04-06T10:06:11;100563.47;;;12.38;41.70
4392;BME280;2210;51.938;8.488;2023-04-06T10:10:14;100556.81;;;12.85;41.12
4392;BME280;2210;51.938;8.488;2023-04-06T10:14:15;100551.59;;;12.72;40.06
4392;BME280;2210;51.938;8.488;2023-04-06T10:18:16;100553.84;;;12.41;40.52
4392;BME280;2210;51.938;8.488;2023-04-06T10:22:22;100556.78;;;12.68;39.75
4392;BME280;2210;51.938;8.488;2023-04-06T10:26:24;100555.38;;;12.65;40.07
4392;BME280;2210;51.938;8.488;2023-04-06T10:30:25;100548.66;;;12.61;39.89
4392;BME280;2210;51.938;8.488;2023-04-06T10:34:34;100553.13;;;12.79;40.49
4392;BME280;2210;51.938;8.488;2023-04-06T10:38:36;100534.19;;;12.71;40.29
4392;BME280;2210;51.938;8.488;2023-04-06T10:42:37;100536.69;;;13.29;41.09
4392;BME280;2210;51.938;8.488;2023-04-06T10:46:38;100542.59;;;13.15;40.06
4392;BME280;2210;51.938;8.488;2023-04-06T10:50:39;100539.78;;;13.10;41.50
4392;BME280;2210;51.938;8.488;2023-04-06T10:54:42;100526.78;;;13.33;40.38
4392;BME280;2210;51.938;8.488;2023-04-06T10:58:48;100531.88;;;13.19;40.03
4392;BME280;2210;51.938;8.488;2023-04-06T11:02:48;100534.13;;;13.61;41.33
4392;BME280;2210;51.938;8.488;2023-04-06T11:06:49;100529.16;;;13.86;41.03
4392;BME280;2210;51.938;8.488;2023-04-06T11:10:50;100530.59;;;13.66;41.28
4392;BME280;2210;51.938;8.488;2023-04-06T11:15:09;100517.69;;;13.55;39.91
4392;BME280;2210;51.938;8.488;2023-04-06T11:19:09;100525.25;;;13.59;40.64
4392;BME280;2210;51.938;8.488;2023-04-06T11:23:10;100519.97;;;14.07;41.33
4392;BME280;2210;51.938;8.488;2023-04-06T11:27:10;100513.66;;;13.90;38.67
4392;BME280;2210;51.938;8.488;2023-04-06T11:31:10;100524.59;;;13.74;40.05
4392;BME280;2210;51.938;8.488;2023-04-06T11:35:19;100514.53;;;13.68;39.87
4392;BME280;2210;51.938;8.488;2023-04-06T11:39:21;100504.06;;;13.97;40.13
4392;BME280;2210;51.938;8.488;2023-04-06T11:43:30;100511.06;;;14.05;37.88
4392;BME280;2210;51.938;8.488;2023-04-06T11:47:36;100500.09;;;14.15;37.69
4392;BME280;2210;51.938;8.488;2023-04-06T11:51:37;100494.88;;;14.24;36.67
4392;BME280;2210;51.938;8.488;2023-04-06T11:55:38;100498.84;;;14.33;35.61
4392;BME280;2210;51.938;8.488;2023-04-06T11:59:38;100489.81;;;13.89;34.81
4392;BME280;2210;51.938;8.488;2023-04-06T12:03:39;100488.38;;;13.81;34.39
4392;BME280;2210;51.938;8.488;2023-04-06T12:07:39;100498.72;;;13.69;35.08
4392;BME280;2210;51.938;8.488;2023-04-06T12:11:39;100483.91;;;13.58;33.54
4392;BME280;2210;51.938;8.488;2023-04-06T12:15:40;100486.78;;;13.90;34.04
4392;BME280;2210;51.938;8.488;2023-04-06T12:19:41;100484.47;;;14.09;35.36
4392;BME280;2210;51.938;8.488;2023-04-06T12:23:41;100475.25;;;14.31;34.53
4392;BME280;2210;51.938;8.488;2023-04-06T12:27:41;100478.56;;;14.60;35.31
4392;BME280;2210;51.938;8.488;2023-04-06T12:31:41;100478.81;;;14.59;34.00
4392;BME280;2210;51.938;8.488;2023-04-06T12:35:44;100466.47;;;14.39;34.74
4392;BME280;2210;51.938;8.488;2023-04-06T12:39:46;100478.34;;;14.34;35.22
4392;BME280;2210;51.938;8.488;2023-04-06T12:43:46;100467.16;;;14.57;35.81
4392;BME280;2210;51.938;8.488;2023-04-06T12:47:47;100477.72;;;14.60;34.17
4392;BME280;2210;51.938;8.488;2023-04-06T12:51:50;100467.34;;;14.12;34.79
4392;BME280;2210;51.938;8.488;2023-04-06T12:55:52;100466.09;;;13.98;35.10
4392;BME280;2210;51.938;8.488;2023-04-06T12:59:53;100465.22;;;14.25;35.74
4392;BME280;2210;51.938;8.488;2023-04-06T13:03:53;100461.47;;;14.09;36.02
4392;BME280;2210;51.938;8.488;2023-04-06T13:07:57;100458.34;;;14.00;34.80
4392;BME280;2210;51.938;8.488;2023-04-06T13:12:00;100456.31;;;14.23;33.65
4392;BME280;2210;51.938;8.488;2023-04-06T13:16:03;100455.09;;;14.08;32.91
4392;BME280;2210;51.938;8.488;2023-04-06T13:20:04;100463.66;;;14.34;33.78
4392;BME280;2210;51.938;8.488;2023-04-06T13:24:05;100450.63;;;14.67;32.89
4392;BME280;2210;51.938;8.488;2023-04-06T13:28:05;100444.28;;;14.39;33.54
4392;BME280;2210;51.938;8.488;2023-04-06T13:32:05;100446.59;;;14.20;33.72
4392;BME280;2210;51.938;8.488;2023-04-06T13:36:09;100445.38;;;14.06;34.50
4392;BME280;2210;51.938;8.488;2023-04-06T13:40:12;100446.00;;;14.13;35.06
4392;BME280;2210;51.938;8.488;2023-04-06T13:44:15;100440.66;;;14.06;35.04
4392;BME280;2210;51.938;8.488;2023-04-06T13:48:16;100442.00;;;14.04;36.17
4392;BME280;2210;51.938;8.488;2023-04-06T13:52:16;100441.06;;;13.93;36.13
4392;BME280;2210;51.938;8.488;2023-04-06T13:56:17;100432.19;;;13.91;36.11
4392;BME280;2210;51.938;8.488;2023-04-06T14:00:20;100445.47;;;13.89;36.92
4392;BME280;2210;51.938;8.488;2023-04-06T14:04:21;100440.88;;;13.72;37.76
4392;BME280;2210;51.938;8.488;2023-04-06T14:08:21;100440.25;;;13.65;36.54
4392;BME280;2210;51.938;8.488;2023-04-06T14:12:21;100437.88;;;13.52;36.99
4392;BME280;2210;51.938;8.488;2023-04-06T14:16:23;100430.31;;;13.69;37.30
4392;BME280;2210;51.938;8.488;2023-04-06T14:20:23;100427.63;;;13.74;36.61
4392;BME280;2210;51.938;8.488;2023-04-06T14:24:30;100424.97;;;13.90;36.71
4392;BME280;2210;51.938;8.488;2023-04-06T14:28:32;100418.09;;;14.25;36.44
4392;BME280;2210;51.938;8.488;2023-04-06T14:32:33;100421.63;;;14.53;35.61
4392;BME280;2210;51.938;8.488;2023-04-06T14:36:33;100421.84;;;14.46;35.71
4392;BME280;2210;51.938;8.488;2023-04-06T14:40:36;100406.50;;;14.33;35.73
4392;BME280;2210;51.938;8.488;2023-04-06T14:44:37;100403.69;;;14.28;35.26
4392;BME280;2210;51.938;8.488;2023-04-06T14:48:38;100406.91;;;14.14;34.88
4392;BME280;2210;51.938;8.488;2023-04-06T14:52:38;100402.47;;;14.13;35.06
4392;BME280;2210;51.938;8.488;2023-04-06T14:56:39;100396.09;;;14.13;36.06
4392;BME280;2210;51.938;8.488;2023-04-06T15:00:39;100400.84;;;14.18;35.62
4392;BME280;2210;51.938;8.488;2023-04-06T15:04:39;100396.94;;;14.19;35.99
4392;BME280;2210;51.938;8.488;2023-04-06T15:08:40;100397.22;;;14.17;36.79
4392;BME280;2210;51.938;8.488;2023-04-06T15:12:40;100397.44;;;14.10;36.95
4392;BME280;2210;51.938;8.488;2023-04-06T15:16:40;100397.06;;;13.96;36.40
4392;BME280;2210;51.938;8.488;2023-04-06T15:20:41;100402.25;;;13.88;36.82
4392;BME280;2210;51.938;8.488;2023-04-06T15:24:41;100399.47;;;13.88;36.97
4392;BME280;2210;51.938;8.488;2023-04-06T15:28:42;100400.91;;;13.95;38.02
4392;BME280;2210;51.938;8.488;2023-04-06T15:32:59;100396.59;;;13.77;36.34
4392;BME280;2210;51.938;8.488;2023-04-06T15:37:01;100396.06;;;13.80;37.26
4392;BME280;2210;51.938;8.488;2023-04-06T15:41:01;100395.19;;;13.75;36.67
4392;BME280;2210;51.938;8.488;2023-04-06T15:45:03;100397.69;;;13.76;37.57
4392;BME280;2210;51.938;8.488;2023-04-06T15:49:03;100393.25;;;13.75;38.12
4392;BME280;2210;51.938;8.488;2023-04-06T15:53:04;100389.97;;;13.78;39.10
4392;BME280;2210;51.938;8.488;2023-04-06T15:57:04;100396.00;;;13.70;38.97
4392;BME280;2210;51.938;8.488;2023-04-06T16:01:15;100388.97;;;13.62;38.00
4392;BME280;2210;51.938;8.488;2023-04-06T16:05:15;100391.63;;;13.52;38.92
4392;BME280;2210;51.938;8.488;2023-04-06T16:09:16;100379.72;;;13.52;39.20
4392;BME280;2210;51.938;8.488;2023-04-06T16:13:16;100386.94;;;13.53;39.33
4392;BME280;2210;51.938;8.488;2023-04-06T16:17:16;100386.66;;;13.54;40.17
4392;BME280;2210;51.938;8.488;2023-04-06T16:21:17;100388.81;;;13.47;39.29
4392;BME280;2210;51.938;8.488;2023-04-06T16:25:17;100389.84;;;13.41;39.39
4392;BME280;2210;51.938;8.488;2023-04-06T16:29:18;100382.44;;;13.46;40.72
4392;BME280;2210;51.938;8.488;2023-04-06T16:33:18;100385.13;;;13.41;39.89
4392;BME280;2210;51.938;8.488;2023-04-06T16:37:19;100383.66;;;13.33;40.62
4392;BME280;2210;51.938;8.488;2023-04-06T16:41:19;100385.00;;;13.31;41.12
4392;BME280;2210;51.938;8.488;2023-04-06T16:45:20;100382.16;;;13.26;40.66
4392;BME280;2210;51.938;8.488;2023-04-06T16:49:21;100382.69;;;13.23;41.61
4392;BME280;2210;51.938;8.488;2023-04-06T16:53:21;100381.53;;;13.19;42.13
4392;BME280;2210;51.938;8.488;2023-04-06T16:57:24;100385.06;;;13.14;43.01
4392;BME280;2210;51.938;8.488;2023-04-06T17:01:31;100380.06;;;13.11;43.14
4392;BME280;2210;51.938;8.488;2023-04-06T17:05:31;100389.06;;;13.01;43.20
4392;BME280;2210;51.938;8.488;2023-04-06T17:09:33;100388.47;;;12.99;44.53
4392;BME280;2210;51.938;8.488;2023-04-06T17:13:34;100393.91;;;12.89;44.90
4392;BME280;2210;51.938;8.488;2023-04-06T17:17:37;100393.75;;;12.78;46.29
4392;BME280;2210;51.938;8.488;2023-04-06T17:21:44;100399.66;;;12.65;47.26
4392;BME280;2210;51.938;8.488;2023-04-06T17:25:44;100410.31;;;12.56;48.13
4392;BME280;2210;51.938;8.488;2023-04-06T17:29:51;100397.22;;;12.52;47.97
4392;BME280;2210;51.938;8.488;2023-04-06T17:33:51;100407.91;;;12.43;48.74
4392;BME280;2210;51.938;8.488;2023-04-06T17:37:51;100407.81;;;12.38;48.27
4392;BME280;2210;51.938;8.488;2023-04-06T17:41:52;100417.94;;;12.32;49.39
4392;BME280;2210;51.938;8.488;2023-04-06T17:45:52;100425.81;;;12.23;49.12
4392;BME280;2210;51.938;8.488;2023-04-06T17:49:52;100424.81;;;12.12;49.28
4392;BME280;2210;51.938;8.488;2023-04-06T17:53:52;100433.03;;;12.07;48.87
4392;BME280;2210;51.938;8.488;2023-04-06T17:57:53;100433.19;;;12.01;49.68
4392;BME280;2210;51.938;8.488;2023-04-06T18:01:53;100434.16;;;11.94;49.63
4392;BME280;2210;51.938;8.488;2023-04-06T18:06:08;100435.47;;;11.92;50.10
4392;BME280;2210;51.938;8.488;2023-04-06T18:10:08;100440.56;;;11.83;50.39
4392;BME280;2210;51.938;8.488;2023-04-06T18:14:09;100452.34;;;11.78;50.11
4392;BME280;2210;51.938;8.488;2023-04-06T18:18:11;100451.66;;;11.71;50.68
4392;BME280;2210;51.938;8.488;2023-04-06T18:22:11;100456.53;;;11.64;50.89
4392;BME280;2210;51.938;8.488;2023-04-06T18:26:16;100455.09;;;11.61;51.54
4392;BME280;2210;51.938;8.488;2023-04-06T18:30:17;100461.06;;;11.58;51.58
4392;BME280;2210;51.938;8.488;2023-04-06T18:34:19;100456.31;;;11.54;51.50
4392;BME280;2210;51.938;8.488;2023-04-06T18:38:19;100463.91;;;11.46;51.51
4392;BME280;2210;51.938;8.488;2023-04-06T18:42:20;100465.34;;;11.49;51.74
4392;BME280;2210;51.938;8.488;2023-04-06T18:46:20;100465.56;;;11.47;52.78
4392;BME280;2210;51.938;8.488;2023-04-06T18:50:21;100466.94;;;11.33;53.01
4392;BME280;2210;51.938;8.488;2023-04-06T18:54:22;100481.44;;;11.40;52.83
4392;BME280;2210;51.938;8.488;2023-04-06T18:58:22;100477.50;;;11.24;53.92
4392;BME280;2210;51.938;8.488;2023-04-06T19:02:24;100485.91;;;11.18;54.02
4392;BME280;2210;51.938;8.488;2023-04-06T19:06:24;100483.88;;;11.13;55.02
4392;BME280;2210;51.938;8.488;2023-04-06T19:10:30;100489.78;;;11.17;55.53
4392;BME280;2210;51.938;8.488;2023-04-06T19:14:33;100492.78;;;11.03;55.87
4392;BME280;2210;51.938;8.488;2023-04-06T19:18:33;100494.34;;;10.99;56.97
4392;BME280;2210;51.938;8.488;2023-04-06T19:22:39;100497.34;;;10.98;57.76
4392;BME280;2210;51.938;8.488;2023-04-06T19:26:40;100495.53;;;10.79;58.09
4392;BME280;2210;51.938;8.488;2023-04-06T19:30:47;100498.78;;;10.76;59.74
4392;BME280;2210;51.938;8.488;2023-04-06T19:35:00;100502.28;;;10.72;60.73
4392;BME280;2210;51.938;8.488;2023-04-06T19:39:02;100505.38;;;10.63;62.83
4392;BME280;2210;51.938;8.488;2023-04-06T19:43:02;100503.69;;;10.51;62.86
4392;BME280;2210;51.938;8.488;2023-04-06T19:47:02;100509.53;;;10.42;64.39
4392;BME280;2210;51.938;8.488;2023-04-06T19:51:02;100504.75;;;10.38;64.92
4392;BME280;2210;51.938;8.488;2023-04-06T19:55:03;100505.09;;;10.41;66.10
4392;BME280;2210;51.938;8.488;2023-04-06T19:59:03;100508.81;;;10.35;66.18
4392;BME280;2210;51.938;8.488;2023-04-06T20:03:04;100500.72;;;10.22;66.83
4392;BME280;2210;51.938;8.488;2023-04-06T20:07:13;100502.84;;;10.08;68.59
4392;BME280;2210;51.938;8.488;2023-04-06T20:11:16;100511.13;;;10.08;69.53
4392;BME280;2210;51.938;8.488;2023-04-06T20:15:19;100509.78;;;10.10;71.30
4392;BME280;2210;51.938;8.488;2023-04-06T20:19:19;100507.25;;;9.97;72.01
4392;BME280;2210;51.938;8.488;2023-04-06T20:23:20;100508.63;;;9.88;72.33
4392;BME280;2210;51.938;8.488;2023-04-06T20:27:20;100504.28;;;9.80;74.07
4392;BME280;2210;51.938;8.488;2023-04-06T20:31:27;100500.88;;;9.66;74.84
4392;BME280;2210;51.938;8.488;2023-04-06T20:35:31;100508.66;;;9.69;76.08
4392;BME280;2210;51.938;8.488;2023-04-06T20:39:31;100510.44;;;9.64;76.80
4392;BME280;2210;51.938;8.488;2023-04-06T20:43:32;100508.84;;;9.56;78.03
4392;BME280;2210;51.938;8.488;2023-04-06T20:47:32;100511.44;;;9.51;78.95
4392;BME280;2210;51.938;8.488;2023-04-06T20:51:35;100509.63;;;9.63;79.74
4392;BME280;2210;51.938;8.488;2023-04-06T20:55:42;100508.09;;;9.49;80.38
4392;BME280;2210;51.938;8.488;2023-04-06T20:59:48;100510.09;;;9.41;82.19
4392;BME280;2210;51.938;8.488;2023-04-06T21:03:48;100508.88;;;9.37;82.93
4392;BME280;2210;51.938;8.488;2023-04-06T21:07:48;100504.66;;;9.35;85.54
4392;BME280;2210;51.938;8.488;2023-04-06T21:11:54;100487.22;;;9.41;84.72
4392;BME280;2210;51.938;8.488;2023-04-06T21:15:55;100504.97;;;9.26;87.57
4392;BME280;2210;51.938;8.488;2023-04-06T21:19:55;100498.59;;;9.26;87.34
4392;BME280;2210;51.938;8.488;2023-04-06T21:23:56;100494.78;;;9.27;88.31
4392;BME280;2210;51.938;8.488;2023-04-06T21:27:57;100496.72;;;9.26;88.43
4392;BME280;2210;51.938;8.488;2023-04-06T21:31:57;100498.03;;;9.24;87.73
4392;BME280;2210;51.938;8.488;2023-04-06T21:35:57;100492.50;;;9.24;88.81
4392;BME280;2210;51.938;8.488;2023-04-06T21:39:58;100494.03;;;9.20;88.65
4392;BME280;2210;51.938;8.488;2023-04-06T21:44:01;100491.66;;;9.23;88.49
4392;BME280;2210;51.938;8.488;2023-04-06T21:48:01;100499.69;;;9.25;88.83